Time;durP1;ratioP1;P1;durP2;ratioP2;P2;SDS_P1;SDS_P2;PMS_P1;PMS_P2;Temp;Humidity;BMP_temperature;BMP_pressure;BME280_temperature;BME280_humidity;BME280_pressure;Samples;Min_cycle;Max_cycle;Signal;HPM_P1;HPM_P2
2023/10/26 00:01:24;;;;;;;;;;;;;;;13.06;100.00;98459.63;5081963;28;20299;-75
2023/10/26 00:04:08;;;;;;;;;;;;;;;13.04;100.00;98453.63;5090791;28;19939;-75
2023/10/26 00:06:52;;;;;;;;;;;;;;;13.07;100.00;98450.13;5083194;28;20424;-75
2023/10/26 00:09:36;;;;;;;;;;;;;;;13.07;100.00;98461.25;5097608;28;19927;-75
2023/10/26 00:12:20;;;;;;;;;;;;;;;13.07;100.00;98466.03;5090713;28;19920;-74
2023/10/26 00:15:04;;;;;;;;;;;;;;;13.06;100.00;98476.34;5092299;28;19922;-75
2023/10/26 00:17:48;;;;;;;;;;;;;;;13.08;100.00;98484.38;5097409;28;20046;-74
2023/10/26 00:20:33;;;;;;;;;;;;;;;13.08;100.00;98485.16;5076435;28;19966;-75
2023/10/26 00:23:17;;;;;;;;;;;;;;;13.08;100.00;98485.16;5097783;28;19949;-75
2023/10/26 00:26:01;;;;;;;;;;;;;;;13.08;100.00;98485.16;5096023;28;20375;-75
2023/10/26 00:28:45;;;;;;;;;;;;;;;13.09;100.00;98481.22;5097376;28;19945;-75
2023/10/26 00:31:29;;;;;;;;;;;;;;;13.08;100.00;98479.59;5090194;28;19920;-74
2023/10/26 00:34:13;;;;;;;;;;;;;;;13.09;100.00;98472.88;5082982;28;19958;-75
2023/10/26 00:36:57;;;;;;;;;;;;;;;13.10;100.00;98474.47;5091012;28;19927;-75
2023/10/26 00:39:41;;;;;;;;;;;;;;;13.09;100.00;98491.53;5097246;28;20026;-75
2023/10/26 00:42:25;;;;;;;;;;;;;;;13.10;100.00;98487.59;5083836;28;19918;-75
2023/10/26 00:45:09;;;;;;;;;;;;;;;13.13;100.00;98498.03;5097123;28;19974;-75
2023/10/26 00:47:53;;;;;;;;;;;;;;;13.12;100.00;98483.28;5094057;28;20043;-75
2023/10/26 00:50:37;;;;;;;;;;;;;;;13.11;100.00;98500.38;5097482;28;20435;-75
2023/10/26 00:53:21;;;;;;;;;;;;;;;13.11;100.00;98487.22;5088190;28;19959;-75
2023/10/26 00:56:05;;;;;;;;;;;;;;;13.12;100.00;98490.81;5093941;28;19919;-74
2023/10/26 00:58:49;;;;;;;;;;;;;;;13.10;100.00;98493.97;5100446;28;19965;-74
2023/10/26 01:01:34;;;;;;;;;;;;;;;13.11;100.00;98501.16;5072793;28;20005;-74
2023/10/26 01:04:18;;;;;;;;;;;;;;;13.11;100.00;98490.00;5099389;28;20019;-75
2023/10/26 01:07:02;;;;;;;;;;;;;;;13.10;100.00;98496.78;5101053;28;19981;-74
2023/10/26 01:09:47;;;;;;;;;;;;;;;13.09;100.00;98505.47;5095492;28;19919;-75
2023/10/26 01:12:31;;;;;;;;;;;;;;;13.04;100.00;98501.00;5099364;28;19919;-74
2023/10/26 01:15:16;;;;;;;;;;;;;;;13.05;100.00;98515.75;5084747;28;19919;-75
2023/10/26 01:18:00;;;;;;;;;;;;;;;13.03;100.00;98512.50;5099129;28;19923;-75
2023/10/26 01:20:44;;;;;;;;;;;;;;;13.02;100.00;98514.47;5099011;28;19919;-74
2023/10/26 01:23:28;;;;;;;;;;;;;;;12.99;100.00;98519.97;5093339;28;19923;-74
2023/10/26 01:26:12;;;;;;;;;;;;;;;12.98;100.00;98521.91;5098605;28;19964;-74
2023/10/26 01:29:01;;;;;;;;;;;;;;;12.94;100.00;98516.25;5095021;28;19919;-74
2023/10/26 01:31:44;;;;;;;;;;;;;;;12.92;100.00;98529.72;5078703;28;19919;-74
2023/10/26 01:34:30;;;;;;;;;;;;;;;12.92;100.00;98534.50;5093303;28;19919;-75
2023/10/26 01:37:14;;;;;;;;;;;;;;;12.89;100.00;98540.78;5127550;27;19953;-74
2023/10/26 01:39:57;;;;;;;;;;;;;;;12.89;100.00;98543.56;5100207;28;19970;-75
2023/10/26 01:42:42;;;;;;;;;;;;;;;12.83;100.00;98539.44;5088532;28;19950;-75
2023/10/26 01:45:26;;;;;;;;;;;;;;;12.82;100.00;98548.97;5099466;28;19923;-74
2023/10/26 01:48:10;;;;;;;;;;;;;;;12.76;100.00;98551.22;5094404;28;20015;-74
2023/10/26 01:50:54;;;;;;;;;;;;;;;12.73;100.00;98565.81;5109102;28;19918;-74
2023/10/26 01:53:38;;;;;;;;;;;;;;;12.70;100.00;98567.38;5086039;28;20352;-74
2023/10/26 01:56:22;;;;;;;;;;;;;;;12.66;100.00;98574.00;5099722;28;19919;-74
2023/10/26 01:59:06;;;;;;;;;;;;;;;12.58;100.00;98584.13;5088090;28;19926;-75
2023/10/26 02:01:50;;;;;;;;;;;;;;;12.57;100.00;98573.34;5087045;28;19918;-74
2023/10/26 02:04:34;;;;;;;;;;;;;;;12.54;100.00;98574.88;5093041;28;19919;-74
2023/10/26 02:07:18;;;;;;;;;;;;;;;12.48;100.00;98567.91;5084036;28;19923;-74
2023/10/26 02:10:02;;;;;;;;;;;;;;;12.42;100.00;98574.91;5104344;28;19976;-74
2023/10/26 02:12:46;;;;;;;;;;;;;;;12.38;100.00;98579.56;5084795;28;20020;-74
2023/10/26 02:15:30;;;;;;;;;;;;;;;12.33;100.00;98599.28;5099037;28;19919;-74
2023/10/26 02:18:15;;;;;;;;;;;;;;;12.26;100.00;98594.34;5085018;28;20005;-74
2023/10/26 02:21:00;;;;;;;;;;;;;;;12.22;100.00;98594.19;5080909;28;19966;-74
2023/10/26 02:23:44;;;;;;;;;;;;;;;12.13;100.00;98607.44;5084036;28;19919;-74
2023/10/26 02:26:29;;;;;;;;;;;;;;;12.09;100.00;98587.06;5086674;28;19919;-74
2023/10/26 02:29:12;;;;;;;;;;;;;;;12.04;100.00;98582.53;5097814;28;19965;-74
2023/10/26 02:31:57;;;;;;;;;;;;;;;11.97;100.00;98581.50;5077323;28;19919;-74
2023/10/26 02:34:40;;;;;;;;;;;;;;;11.92;100.00;98576.19;5088330;28;19919;-74
2023/10/26 02:37:25;;;;;;;;;;;;;;;11.84;100.00;98575.94;5083284;28;20011;-74
2023/10/26 02:40:09;;;;;;;;;;;;;;;11.75;100.00;98577.22;5097954;28;19927;-74
2023/10/26 02:42:53;;;;;;;;;;;;;;;11.72;100.00;98578.72;5097880;28;19919;-74
2023/10/26 02:45:37;;;;;;;;;;;;;;;11.66;100.00;98579.31;5076980;28;19919;-74
2023/10/26 02:48:21;;;;;;;;;;;;;;;11.59;100.00;98572.38;5093131;28;20395;-74
2023/10/26 02:51:05;;;;;;;;;;;;;;;11.56;100.00;98572.22;5083191;28;19954;-74
2023/10/26 02:53:49;;;;;;;;;;;;;;;11.46;100.00;98573.53;5068669;28;19920;-74
2023/10/26 02:56:33;;;;;;;;;;;;;;;11.40;100.00;98580.47;5093082;28;19969;-74
2023/10/26 02:59:17;;;;;;;;;;;;;;;11.34;100.00;98576.31;5097040;28;19999;-74
2023/10/26 03:02:01;;;;;;;;;;;;;;;11.25;100.00;98576.38;5079000;28;19966;-74
2023/10/26 03:04:45;;;;;;;;;;;;;;;11.21;100.00;98580.22;5092924;28;19936;-74
2023/10/26 03:07:29;;;;;;;;;;;;;;;11.15;100.00;98574.06;5092470;28;19920;-74
2023/10/26 03:10:13;;;;;;;;;;;;;;;11.11;100.00;98570.34;5085511;28;19918;-74
2023/10/26 03:12:57;;;;;;;;;;;;;;;11.02;100.00;98584.34;5082657;28;19965;-74
2023/10/26 03:15:41;;;;;;;;;;;;;;;10.99;100.00;98582.25;5097048;28;20401;-74
2023/10/26 03:18:28;;;;;;;;;;;;;;;10.91;100.00;98572.84;5086301;28;19922;-74
2023/10/26 03:21:15;;;;;;;;;;;;;;;10.88;100.00;98579.09;5098292;28;19958;-74
2023/10/26 03:23:59;;;;;;;;;;;;;;;10.86;100.00;98572.25;5083787;28;19974;-74
2023/10/26 03:26:43;;;;;;;;;;;;;;;10.81;100.00;98576.09;5107259;28;19926;-74
2023/10/26 03:29:27;;;;;;;;;;;;;;;10.77;100.00;98585.44;5082245;28;19918;-74
2023/10/26 03:32:11;;;;;;;;;;;;;;;10.73;100.00;98597.22;5092793;28;19919;-74
2023/10/26 03:34:57;;;;;;;;;;;;;;;10.68;100.00;98597.44;5097998;28;19962;-74
2023/10/26 03:37:41;;;;;;;;;;;;;;;10.63;100.00;98596.84;5069173;28;19946;-74
2023/10/26 03:40:25;;;;;;;;;;;;;;;10.60;100.00;98589.19;5109122;28;19927;-74
2023/10/26 03:43:09;;;;;;;;;;;;;;;10.55;100.00;98576.31;5092019;28;19923;-74
2023/10/26 03:45:53;;;;;;;;;;;;;;;10.52;100.00;98580.59;5088224;28;20358;-74
2023/10/26 03:48:37;;;;;;;;;;;;;;;10.51;100.00;98586.50;5080645;28;19919;-74
2023/10/26 03:51:21;;;;;;;;;;;;;;;10.46;100.00;98581.16;5097065;28;20259;-74
2023/10/26 03:54:05;;;;;;;;;;;;;;;10.47;100.00;98571.66;5084324;28;20378;-74
2023/10/26 03:56:49;;;;;;;;;;;;;;;10.38;100.00;98562.63;5093987;28;19947;-74
2023/10/26 03:59:33;;;;;;;;;;;;;;;10.39;100.00;98553.13;5090144;28;19962;-74
2023/10/26 04:02:17;;;;;;;;;;;;;;;10.37;100.00;98545.16;5097341;28;20013;-74
2023/10/26 04:05:02;;;;;;;;;;;;;;;10.27;100.00;98551.91;5094526;28;19973;-74
2023/10/26 04:07:46;;;;;;;;;;;;;;;10.28;100.00;98553.56;5096605;28;20307;-74
2023/10/26 04:10:30;;;;;;;;;;;;;;;10.27;100.00;98545.56;5090587;28;19923;-74
2023/10/26 04:13:14;;;;;;;;;;;;;;;10.25;100.00;98542.28;5095465;28;19919;-74
2023/10/26 04:15:58;;;;;;;;;;;;;;;10.25;100.00;98548.66;5091640;28;20000;-74
2023/10/26 04:18:42;;;;;;;;;;;;;;;10.21;100.00;98552.44;5079579;28;19938;-74
2023/10/26 04:21:26;;;;;;;;;;;;;;;10.21;100.00;98561.56;5129511;27;20462;-74
2023/10/26 04:24:10;;;;;;;;;;;;;;;10.19;100.00;98546.41;5102687;28;20056;-74
2023/10/26 04:26:54;;;;;;;;;;;;;;;10.20;100.00;98553.59;5108840;28;20060;-74
2023/10/26 04:29:39;;;;;;;;;;;;;;;10.18;100.00;98559.47;5067557;28;20359;-74
2023/10/26 04:32:23;;;;;;;;;;;;;;;10.15;100.00;98562.13;5112312;28;19919;-74
2023/10/26 04:35:07;;;;;;;;;;;;;;;10.13;100.00;98562.47;5086402;28;19939;-74
2023/10/26 04:37:51;;;;;;;;;;;;;;;10.13;100.00;98562.47;5088027;28;19938;-74
2023/10/26 04:40:37;;;;;;;;;;;;;;;10.12;100.00;98571.13;5104322;28;20339;-74
2023/10/26 04:43:21;;;;;;;;;;;;;;;10.11;100.00;98561.97;5106184;28;19935;-74
2023/10/26 04:46:05;;;;;;;;;;;;;;;10.13;100.00;98558.88;5094246;28;20329;-74
2023/10/26 04:48:49;;;;;;;;;;;;;;;10.13;100.00;98565.22;5099395;28;19961;-74
2023/10/26 04:51:33;;;;;;;;;;;;;;;10.13;100.00;98542.25;5096056;28;20418;-74
2023/10/26 04:54:17;;;;;;;;;;;;;;;10.13;100.00;98540.25;5094170;28;19919;-74
2023/10/26 04:57:02;;;;;;;;;;;;;;;10.15;100.00;98557.41;5098252;28;20010;-74
2023/10/26 04:59:46;;;;;;;;;;;;;;;10.16;100.00;98564.56;5079838;28;19923;-74
2023/10/26 05:02:30;;;;;;;;;;;;;;;10.18;100.00;98558.69;5070804;28;19947;-74
2023/10/26 05:05:14;;;;;;;;;;;;;;;10.19;100.00;98569.41;5099468;28;19919;-74
2023/10/26 05:07:58;;;;;;;;;;;;;;;10.24;100.00;98557.31;5085125;28;19957;-74
2023/10/26 05:10:42;;;;;;;;;;;;;;;10.22;100.00;98560.44;5100448;28;19942;-74
2023/10/26 05:13:27;;;;;;;;;;;;;;;10.27;100.00;98562.22;5100831;28;19919;-74
2023/10/26 05:16:11;;;;;;;;;;;;;;;10.30;100.00;98558.75;5100467;28;19999;-74
2023/10/26 05:18:55;;;;;;;;;;;;;;;10.31;100.00;98557.63;5093197;28;19966;-74
2023/10/26 05:21:39;;;;;;;;;;;;;;;10.34;100.00;98554.16;5088898;28;19938;-74
2023/10/26 05:24:23;;;;;;;;;;;;;;;10.38;100.00;98557.06;5097791;28;20008;-74
2023/10/26 05:27:06;;;;;;;;;;;;;;;10.39;100.00;98542.88;5100050;28;19919;-74
2023/10/26 05:29:51;;;;;;;;;;;;;;;10.43;100.00;98543.78;5092427;28;20042;-74
2023/10/26 05:32:35;;;;;;;;;;;;;;;10.43;100.00;98535.47;5098126;28;19919;-74
2023/10/26 05:35:19;;;;;;;;;;;;;;;10.43;100.00;98535.47;5097140;28;19918;-74
2023/10/26 05:38:06;;;;;;;;;;;;;;;10.47;100.00;98525.31;5097465;28;19969;-74
2023/10/26 05:40:59;;;;;;;;;;;;;;;10.49;100.00;98536.88;5066245;28;19961;-74
2023/10/26 05:43:43;;;;;;;;;;;;;;;10.50;100.00;98535.72;5114153;27;19955;-74
2023/10/26 05:46:27;;;;;;;;;;;;;;;10.48;100.00;98529.72;5094617;28;19959;-74
2023/10/26 05:49:11;;;;;;;;;;;;;;;10.49;100.00;98511.88;5093226;28;20364;-74
2023/10/26 05:51:57;;;;;;;;;;;;;;;10.53;100.00;98525.91;5093999;28;19962;-74
2023/10/26 05:54:41;;;;;;;;;;;;;;;10.49;100.00;98536.06;5091236;28;19965;-74
2023/10/26 05:57:27;;;;;;;;;;;;;;;10.48;100.00;98549.13;5087027;28;20030;-74
2023/10/26 06:00:12;;;;;;;;;;;;;;;10.49;100.00;98520.22;5095162;28;19927;-74
2023/10/26 06:02:56;;;;;;;;;;;;;;;10.48;100.00;98518.59;5084020;28;19919;-74
2023/10/26 06:05:40;;;;;;;;;;;;;;;10.49;100.00;98520.22;5114463;27;19923;-74
2023/10/26 06:08:24;;;;;;;;;;;;;;;10.47;100.00;98511.44;5116122;27;19919;-74
2023/10/26 06:11:08;;;;;;;;;;;;;;;10.46;100.00;98515.34;5096813;28;20354;-74
2023/10/26 06:13:53;;;;;;;;;;;;;;;10.45;100.00;98497.09;5083684;28;19926;-74
2023/10/26 06:16:37;;;;;;;;;;;;;;;10.44;100.00;98500.19;5071166;28;19961;-74
2023/10/26 06:19:21;;;;;;;;;;;;;;;10.44;100.00;98505.75;5111487;28;19939;-74
2023/10/26 06:22:05;;;;;;;;;;;;;;;10.42;100.00;98500.56;5099332;28;19933;-74
2023/10/26 06:24:49;;;;;;;;;;;;;;;10.43;100.00;98487.47;5087088;28;19995;-75
2023/10/26 06:27:33;;;;;;;;;;;;;;;10.40;100.00;98482.63;5083841;28;19961;-74
2023/10/26 06:30:17;;;;;;;;;;;;;;;10.40;100.00;98488.16;5097636;28;20528;-74
2023/10/26 06:33:02;;;;;;;;;;;;;;;10.42;100.00;98475.56;5091966;28;19935;-74
2023/10/26 06:35:46;;;;;;;;;;;;;;;10.42;100.00;98496.94;5102481;28;19919;-74
2023/10/26 06:38:29;;;;;;;;;;;;;;;10.40;100.00;98483.44;5088799;28;19927;-74
2023/10/26 06:41:13;;;;;;;;;;;;;;;10.39;100.00;98476.28;5076603;28;19920;-74
2023/10/26 06:43:57;;;;;;;;;;;;;;;10.39;100.00;98487.38;5082442;28;19982;-74
2023/10/26 06:46:42;;;;;;;;;;;;;;;10.43;100.00;98490.25;5082772;28;19918;-74
2023/10/26 06:49:26;;;;;;;;;;;;;;;10.41;100.00;98487.00;5107331;28;19964;-74
2023/10/26 06:52:10;;;;;;;;;;;;;;;10.41;100.00;98473.13;5078861;28;20288;-75
2023/10/26 06:54:53;;;;;;;;;;;;;;;10.42;100.00;98474.75;5120850;27;19938;-74
2023/10/26 06:57:37;;;;;;;;;;;;;;;10.41;100.00;98473.94;5091586;28;19987;-74
2023/10/26 07:00:21;;;;;;;;;;;;;;;10.42;100.00;98491.41;5090506;28;19930;-75
2023/10/26 07:03:05;;;;;;;;;;;;;;;10.43;100.00;98484.72;5093065;28;19927;-74
2023/10/26 07:05:49;;;;;;;;;;;;;;;10.43;100.00;98488.28;5095052;28;20267;-75
2023/10/26 07:08:33;;;;;;;;;;;;;;;10.46;100.00;98495.94;5115679;27;20012;-74
2023/10/26 07:11:17;;;;;;;;;;;;;;;10.45;100.00;98496.28;5094434;28;19919;-72
2023/10/26 07:14:01;;;;;;;;;;;;;;;10.47;100.00;98497.56;5090567;28;19942;-74
2023/10/26 07:16:45;;;;;;;;;;;;;;;10.44;100.00;98489.91;5085680;28;20332;-75
2023/10/26 07:19:29;;;;;;;;;;;;;;;10.46;100.00;98489.56;5080722;28;20394;-75
2023/10/26 07:22:13;;;;;;;;;;;;;;;10.48;100.00;98501.94;5097097;28;19977;-74
2023/10/26 07:24:57;;;;;;;;;;;;;;;10.48;100.00;98496.41;5088731;28;19920;-74
2023/10/26 07:27:42;;;;;;;;;;;;;;;10.47;100.00;98492.03;5110104;28;19934;-74
2023/10/26 07:30:26;;;;;;;;;;;;;;;10.47;100.00;98505.06;5078003;28;19962;-74
2023/10/26 07:33:10;;;;;;;;;;;;;;;10.51;100.00;98497.69;5096988;28;19958;-74
2023/10/26 07:35:57;;;;;;;;;;;;;;;10.56;100.00;98477.22;5090998;28;19919;-74
2023/10/26 07:38:41;;;;;;;;;;;;;;;10.55;100.00;98479.19;5092864;28;19943;-74
2023/10/26 07:41:26;;;;;;;;;;;;;;;10.54;100.00;98488.66;5076819;28;20296;-75
2023/10/26 07:44:09;;;;;;;;;;;;;;;10.58;100.00;98484.03;5072020;28;20020;-74
2023/10/26 07:46:53;;;;;;;;;;;;;;;10.60;100.00;98495.63;5122981;27;19919;-74
2023/10/26 07:49:37;;;;;;;;;;;;;;;10.61;100.00;98485.31;5090998;28;19979;-74
2023/10/26 07:52:21;;;;;;;;;;;;;;;10.63;100.00;98472.72;5081418;28;20019;-74
2023/10/26 07:55:06;;;;;;;;;;;;;;;10.67;100.00;98481.16;5100039;28;20011;-74
2023/10/26 07:57:50;;;;;;;;;;;;;;;10.69;100.00;98474.13;5103790;28;19965;-74
2023/10/26 08:00:33;;;;;;;;;;;;;;;10.73;100.00;98463.16;5082636;28;19967;-74
2023/10/26 08:03:17;;;;;;;;;;;;;;;10.77;100.00;98479.94;5100703;28;19935;-75
2023/10/26 08:06:02;;;;;;;;;;;;;;;10.79;100.00;98483.97;5082758;28;20368;-74
2023/10/26 08:08:47;;;;;;;;;;;;;;;10.83;100.00;98484.09;5075222;28;19919;-74
2023/10/26 08:11:32;;;;;;;;;;;;;;;10.86;100.00;98473.09;5103311;28;19919;-74
2023/10/26 08:14:16;;;;;;;;;;;;;;;10.88;100.00;98481.09;5103000;28;19986;-74
2023/10/26 08:17:00;;;;;;;;;;;;;;;10.92;100.00;98488.41;5103246;28;19919;-74
2023/10/26 08:19:43;;;;;;;;;;;;;;;10.95;100.00;98498.00;5102930;28;20342;-75
2023/10/26 08:22:28;;;;;;;;;;;;;;;10.98;100.00;98500.09;5094299;28;19987;-74
2023/10/26 08:25:12;;;;;;;;;;;;;;;11.03;100.00;98497.09;5083016;28;20015;-74
2023/10/26 08:27:56;;;;;;;;;;;;;;;11.05;100.00;98491.19;5090641;28;20375;-76
2023/10/26 08:30:40;;;;;;;;;;;;;;;11.12;100.00;98494.19;5102800;28;19951;-77
2023/10/26 08:33:24;;;;;;;;;;;;;;;11.16;100.00;98504.25;5097397;28;19920;-77
2023/10/26 08:36:08;;;;;;;;;;;;;;;11.19;100.00;98502.75;5102038;28;19918;-76
2023/10/26 08:38:52;;;;;;;;;;;;;;;11.26;100.00;98499.41;5106355;28;19926;-76
2023/10/26 08:41:35;;;;;;;;;;;;;;;11.33;100.00;98503.22;5097365;28;19919;-76
2023/10/26 08:44:19;;;;;;;;;;;;;;;11.38;100.00;98502.97;5094332;28;20268;-76
2023/10/26 08:47:04;;;;;;;;;;;;;;;11.44;100.00;98505.53;5103082;28;19918;-77
2023/10/26 08:49:48;;;;;;;;;;;;;;;11.49;100.00;98491.41;5083701;28;19966;-76
2023/10/26 08:52:31;;;;;;;;;;;;;;;11.56;100.00;98488.84;5094964;28;19920;-76
2023/10/26 08:55:16;;;;;;;;;;;;;;;11.61;100.00;98486.63;5100066;28;19961;-76
2023/10/26 08:58:02;;;;;;;;;;;;;;;11.68;100.00;98474.94;5102824;28;19954;-76
2023/10/26 09:00:46;;;;;;;;;;;;;;;11.76;100.00;98485.09;5094311;28;20399;-76
2023/10/26 09:03:32;;;;;;;;;;;;;;;11.84;100.00;98480.56;5129862;27;19919;-76
2023/10/26 09:06:17;;;;;;;;;;;;;;;11.95;100.00;98476.16;5085190;28;20455;-76
2023/10/26 09:09:04;;;;;;;;;;;;;;;12.01;100.00;98460.84;5093688;28;19951;-77
2023/10/26 09:11:48;;;;;;;;;;;;;;;12.11;100.00;98473.41;5092491;28;19918;-76
2023/10/26 09:14:32;;;;;;;;;;;;;;;12.16;100.00;98492.66;5084964;28;19981;-76
2023/10/26 09:17:24;;;;;;;;;;;;;;;12.25;100.00;98482.16;5079805;28;19962;-76
2023/10/26 09:20:17;;;;;;;;;;;;;;;12.31;100.00;98491.06;5089195;28;19923;-76
2023/10/26 09:23:01;;;;;;;;;;;;;;;12.39;100.00;98483.75;5093616;28;19973;-76
2023/10/26 09:25:55;;;;;;;;;;;;;;;12.45;100.00;98477.56;5095164;28;19959;-76
2023/10/26 09:28:52;;;;;;;;;;;;;;;12.56;100.00;98485.38;5079019;28;19923;-76
2023/10/26 09:31:36;;;;;;;;;;;;;;;12.58;100.00;98483.06;5078838;28;19919;-77
2023/10/26 09:34:24;;;;;;;;;;;;;;;12.65;100.00;98480.50;5072033;28;19979;-77
2023/10/26 09:37:09;;;;;;;;;;;;;;;12.69;100.00;98468.25;5098800;28;20036;-77
2023/10/26 09:39:54;;;;;;;;;;;;;;;12.81;100.00;98470.16;5098801;28;20351;-76
2023/10/26 09:42:38;;;;;;;;;;;;;;;12.87;100.00;98470.69;5073552;28;19918;-76
2023/10/26 09:45:22;;;;;;;;;;;;;;;12.90;100.00;98473.59;5097545;28;19981;-76
2023/10/26 09:48:07;;;;;;;;;;;;;;;12.97;100.00;98472.94;5080017;28;20375;-76
2023/10/26 09:50:50;;;;;;;;;;;;;;;13.05;100.00;98460.81;5078679;28;19919;-76
2023/10/26 09:53:39;;;;;;;;;;;;;;;13.11;100.00;98467.72;5095879;28;19946;-76
2023/10/26 09:56:23;;;;;;;;;;;;;;;13.15;100.00;98462.25;5097584;28;19937;-76
2023/10/26 09:59:07;;;;;;;;;;;;;;;13.21;100.00;98448.84;5097849;28;20294;-76
2023/10/26 10:01:51;;;;;;;;;;;;;;;13.23;100.00;98446.50;5087844;28;19919;-76
2023/10/26 10:04:36;;;;;;;;;;;;;;;13.32;100.00;98447.16;5098549;28;19981;-76
2023/10/26 10:07:59;;;;;;;;;;;;;;;13.37;100.00;98449.63;5076537;28;19931;-76
2023/10/26 10:11:06;;;;;;;;;;;;;;;13.40;100.00;98438.59;5057154;28;19919;-76
2023/10/26 10:13:49;;;;;;;;;;;;;;;13.45;100.00;98431.91;5055682;28;20062;-76
2023/10/26 10:16:34;;;;;;;;;;;;;;;13.51;100.00;98427.69;5077381;28;19920;-76
2023/10/26 10:19:20;;;;;;;;;;;;;;;13.59;100.00;98423.84;5094421;28;19923;-76
2023/10/26 10:22:06;;;;;;;;;;;;;;;13.66;100.00;98425.22;5099341;28;19958;-76
2023/10/26 10:24:50;;;;;;;;;;;;;;;13.72;100.00;98424.53;5072319;28;19963;-77
2023/10/26 10:27:34;;;;;;;;;;;;;;;13.75;100.00;98409.84;5096752;28;19919;-76
2023/10/26 10:30:19;;;;;;;;;;;;;;;13.81;100.00;98425.13;5098487;28;19923;-76
2023/10/26 10:33:03;;;;;;;;;;;;;;;13.87;100.00;98417.28;5092198;28;20012;-76
2023/10/26 10:35:50;;;;;;;;;;;;;;;13.91;100.00;98418.16;5097091;28;20383;-76
2023/10/26 10:38:34;;;;;;;;;;;;;;;13.97;100.00;98425.06;5079294;28;19944;-77
2023/10/26 10:41:18;;;;;;;;;;;;;;;13.98;100.00;98421.09;5098925;28;19934;-77
2023/10/26 10:44:03;;;;;;;;;;;;;;;14.04;100.00;98425.22;5085659;28;20495;-77
2023/10/26 10:46:47;;;;;;;;;;;;;;;14.04;100.00;98429.97;5095032;28;20391;-76
2023/10/26 10:49:31;;;;;;;;;;;;;;;14.03;100.00;98411.63;5077456;28;19935;-76
2023/10/26 10:52:15;;;;;;;;;;;;;;;14.05;100.00;98401.72;5092105;28;19935;-76
2023/10/26 10:54:59;;;;;;;;;;;;;;;14.06;100.00;98405.31;5078532;28;19958;-77
2023/10/26 10:57:59;;;;;;;;;;;;;;;14.08;100.00;98402.97;5082486;28;19957;-76
2023/10/26 11:00:45;;;;;;;;;;;;;;;14.04;100.00;98397.31;5086673;28;19930;-76
2023/10/26 11:03:29;;;;;;;;;;;;;;;14.04;100.00;98396.47;5097307;28;19957;-77
2023/10/26 11:06:17;;;;;;;;;;;;;;;14.02;100.00;98391.28;5098610;28;19958;-77
2023/10/26 11:09:01;;;;;;;;;;;;;;;13.99;100.00;98383.66;5091367;28;20339;-77
2023/10/26 11:11:45;;;;;;;;;;;;;;;14.03;100.00;98376.16;5097332;28;20066;-77
2023/10/26 11:14:29;;;;;;;;;;;;;;;13.99;100.00;98369.69;5093589;28;19971;-77
2023/10/26 11:17:14;;;;;;;;;;;;;;;13.98;100.00;98376.44;5098520;28;20010;-77
2023/10/26 11:19:58;;;;;;;;;;;;;;;14.00;100.00;98362.94;5076963;28;20300;-77
2023/10/26 11:22:42;;;;;;;;;;;;;;;14.00;100.00;98348.97;5094207;28;19919;-77
2023/10/26 11:25:26;;;;;;;;;;;;;;;13.98;100.00;98342.94;5091386;28;19923;-76
2023/10/26 11:28:10;;;;;;;;;;;;;;;14.01;100.00;98330.25;5090665;28;19991;-77
2023/10/26 11:30:55;;;;;;;;;;;;;;;13.99;100.00;98316.69;5095800;28;20346;-77
2023/10/26 11:33:40;;;;;;;;;;;;;;;14.01;100.00;98319.91;5097183;28;19918;-77
2023/10/26 11:36:24;;;;;;;;;;;;;;;14.00;100.00;98306.31;5082536;28;20260;-76
2023/10/26 11:39:08;;;;;;;;;;;;;;;14.02;100.00;98299.19;5070038;28;19934;-76
2023/10/26 11:41:53;;;;;;;;;;;;;;;14.04;100.00;98294.06;5088838;28;19919;-76
2023/10/26 11:44:37;;;;;;;;;;;;;;;14.08;100.00;98297.69;5092235;28;19919;-76
2023/10/26 11:47:21;;;;;;;;;;;;;;;14.10;100.00;98291.75;5094369;28;19920;-76
2023/10/26 11:50:05;;;;;;;;;;;;;;;14.13;100.00;98293.00;5096788;28;20367;-77
2023/10/26 11:52:50;;;;;;;;;;;;;;;14.16;100.00;98281.09;5076120;28;19919;-76
2023/10/26 11:55:34;;;;;;;;;;;;;;;14.21;100.00;98278.00;5094584;28;19958;-77
2023/10/26 11:58:18;;;;;;;;;;;;;;;14.25;100.00;98284.44;5081472;28;20387;-76
2023/10/26 12:01:03;;;;;;;;;;;;;;;14.30;100.00;98278.53;5090498;28;19981;-77
2023/10/26 12:03:47;;;;;;;;;;;;;;;14.32;100.00;98267.81;5096536;28;19934;-76
2023/10/26 12:06:31;;;;;;;;;;;;;;;14.38;100.00;98271.09;5094575;28;19992;-76
2023/10/26 12:09:15;;;;;;;;;;;;;;;14.37;100.00;98270.25;5084966;28;20389;-76
2023/10/26 12:11:59;;;;;;;;;;;;;;;14.40;100.00;98272.34;5096549;28;19981;-77
2023/10/26 12:14:43;;;;;;;;;;;;;;;14.43;100.00;98274.38;5094277;28;19918;-76
2023/10/26 12:17:27;;;;;;;;;;;;;;;14.44;100.00;98267.59;5090764;28;19967;-76
2023/10/26 12:20:11;;;;;;;;;;;;;;;14.41;100.00;98254.38;5083853;28;20323;-76
2023/10/26 12:22:55;;;;;;;;;;;;;;;14.44;100.00;98250.03;5108599;28;19918;-76
2023/10/26 12:25:40;;;;;;;;;;;;;;;14.39;100.00;98242.78;5091433;28;19975;-76
2023/10/26 12:28:24;;;;;;;;;;;;;;;14.39;100.00;98240.00;5090307;28;19962;-77
2023/10/26 12:31:09;;;;;;;;;;;;;;;14.37;100.00;98231.19;5097138;28;20049;-77
2023/10/26 12:33:53;;;;;;;;;;;;;;;14.36;100.00;98235.16;5079230;28;19920;-77
2023/10/26 12:36:37;;;;;;;;;;;;;;;14.35;100.00;98250.31;5090288;28;19947;-76
2023/10/26 12:39:21;;;;;;;;;;;;;;;14.34;100.00;98248.69;5097127;28;19970;-77
2023/10/26 12:42:05;;;;;;;;;;;;;;;14.34;100.00;98231.13;5101301;28;19957;-76
2023/10/26 12:44:50;;;;;;;;;;;;;;;14.31;100.00;98221.50;5093976;28;20376;-76
2023/10/26 12:47:33;;;;;;;;;;;;;;;14.31;100.00;98216.72;5108672;28;19918;-77
2023/10/26 12:50:18;;;;;;;;;;;;;;;14.31;100.00;98215.94;5100706;28;20307;-76
2023/10/26 12:53:02;;;;;;;;;;;;;;;14.28;100.00;98211.91;5087599;28;19947;-77
2023/10/26 12:55:46;;;;;;;;;;;;;;;14.27;100.00;98199.13;5094153;28;19919;-77
2023/10/26 12:58:31;;;;;;;;;;;;;;;14.26;100.00;98208.69;5099085;28;19961;-77
2023/10/26 13:01:14;;;;;;;;;;;;;;;14.25;100.00;98203.47;5080494;28;19919;-77
2023/10/26 13:03:59;;;;;;;;;;;;;;;14.23;100.00;98191.88;5079402;28;19923;-77
2023/10/26 13:06:42;;;;;;;;;;;;;;;14.22;100.00;98185.47;5079575;28;19935;-76
2023/10/26 13:09:27;;;;;;;;;;;;;;;14.17;100.00;98193.38;5126098;27;19993;-77
2023/10/26 13:12:11;;;;;;;;;;;;;;;14.15;100.00;98199.34;5089258;28;19919;-76
2023/10/26 13:14:55;;;;;;;;;;;;;;;14.11;100.00;98197.66;5086058;28;20311;-76
2023/10/26 13:17:38;;;;;;;;;;;;;;;14.06;100.00;98190.41;5096408;28;20379;-76
2023/10/26 13:20:25;;;;;;;;;;;;;;;14.02;100.00;98195.13;5100618;28;19986;-76
2023/10/26 13:23:09;;;;;;;;;;;;;;;13.99;100.00;98199.47;5088639;28;19962;-76
2023/10/26 13:25:53;;;;;;;;;;;;;;;13.96;100.00;98202.22;5083142;28;19919;-76
2023/10/26 13:28:37;;;;;;;;;;;;;;;13.94;100.00;98198.97;5078920;28;19919;-76
2023/10/26 13:31:21;;;;;;;;;;;;;;;13.92;100.00;98190.97;5088539;28;20264;-76
2023/10/26 13:34:07;;;;;;;;;;;;;;;13.93;100.00;98187.00;5113904;28;19964;-77
2023/10/26 13:36:51;;;;;;;;;;;;;;;13.93;100.00;98188.97;5098972;28;19927;-77
2023/10/26 13:39:35;;;;;;;;;;;;;;;13.92;100.00;98184.59;5085375;28;19923;-76
2023/10/26 13:42:21;;;;;;;;;;;;;;;13.93;100.00;98183.41;5093052;28;20538;-77
2023/10/26 13:45:06;;;;;;;;;;;;;;;13.95;100.00;98187.44;5093736;28;19974;-76
2023/10/26 13:47:49;;;;;;;;;;;;;;;13.97;100.00;98185.06;5121331;27;19965;-76
2023/10/26 13:50:34;;;;;;;;;;;;;;;14.03;100.00;98180.00;5104591;28;20268;-76
2023/10/26 13:53:18;;;;;;;;;;;;;;;14.04;100.00;98182.41;5093329;28;20077;-76
2023/10/26 13:56:02;;;;;;;;;;;;;;;14.07;100.00;98176.09;5087050;28;20370;-76
2023/10/26 13:58:46;;;;;;;;;;;;;;;14.10;100.00;98171.75;5081402;28;19965;-76
2023/10/26 14:01:30;;;;;;;;;;;;;;;14.14;100.00;98175.38;5093066;28;20003;-77
2023/10/26 14:04:14;;;;;;;;;;;;;;;14.14;100.00;98177.38;5093562;28;19987;-76